createdAt,value
2023-06-11T00:01:41.859Z,14.34
2023-06-11T00:04:27.218Z,14.26
2023-06-11T00:06:57.580Z,14.18
2023-06-11T00:09:25.910Z,14.16
2023-06-11T00:11:55.210Z,14.22
2023-06-11T00:14:24.869Z,14.28
2023-06-11T00:16:53.485Z,14.26
2023-06-11T00:19:22.442Z,14.25
2023-06-11T00:21:51.835Z,14.25
2023-06-11T00:24:19.972Z,14.28
2023-06-11T00:26:48.215Z,14.33
2023-06-11T00:29:16.414Z,14.32
2023-06-11T00:31:44.758Z,14.24
2023-06-11T00:34:12.955Z,14.09
2023-06-11T00:36:41.915Z,13.94
2023-06-11T00:39:12.264Z,13.86
2023-06-11T00:41:46.500Z,13.81
2023-06-11T00:44:23.023Z,13.79
2023-06-11T00:46:52.586Z,13.85
2023-06-11T00:49:22.192Z,13.78
2023-06-11T00:51:50.221Z,13.70
2023-06-11T00:54:18.860Z,13.73
2023-06-11T00:56:47.082Z,13.68
2023-06-11T00:59:18.625Z,13.62
2023-06-11T01:02:00.884Z,13.58
2023-06-11T01:04:34.139Z,13.65
2023-06-11T01:07:06.535Z,13.56
2023-06-11T01:09:35.073Z,13.59
2023-06-11T01:12:03.837Z,13.57
2023-06-11T01:14:33.654Z,13.48
2023-06-11T01:17:06.039Z,13.49
2023-06-11T01:19:56.629Z,13.44
2023-06-11T01:22:30.953Z,13.40
2023-06-11T01:25:00.439Z,13.51
2023-06-11T01:27:49.494Z,13.53
2023-06-11T01:30:22.124Z,13.44
2023-06-11T01:32:57.307Z,13.35
2023-06-11T01:35:30.064Z,13.33
2023-06-11T01:37:59.626Z,13.34
2023-06-11T01:40:37.492Z,13.30
2023-06-11T01:43:06.186Z,13.27
2023-06-11T01:45:35.331Z,13.19
2023-06-11T01:48:03.554Z,13.17
2023-06-11T01:50:32.812Z,13.16
2023-06-11T01:53:01.804Z,13.22
2023-06-11T01:55:30.776Z,13.27
2023-06-11T01:57:58.856Z,13.20
2023-06-11T02:00:27.027Z,13.08
2023-06-11T02:02:55.690Z,13.12
2023-06-11T02:05:23.731Z,13.11
2023-06-11T02:07:51.828Z,13.03
2023-06-11T02:10:19.868Z,13.00
2023-06-11T02:12:47.865Z,13.04
2023-06-11T02:15:16.203Z,13.16
2023-06-11T02:17:44.281Z,13.19
2023-06-11T02:20:15.108Z,13.17
2023-06-11T02:22:43.741Z,13.21
2023-06-11T02:25:12.059Z,13.24
2023-06-11T02:27:40.451Z,13.27
2023-06-11T02:30:08.899Z,13.30
2023-06-11T02:32:37.064Z,13.28
2023-06-11T02:35:05.580Z,13.22
2023-06-11T02:37:33.634Z,13.20
2023-06-11T02:40:01.713Z,13.11
2023-06-11T02:42:29.731Z,13.07
2023-06-11T02:44:57.736Z,13.02
2023-06-11T02:47:25.701Z,13.01
2023-06-11T02:49:54.011Z,12.94
2023-06-11T02:52:22.511Z,12.90
2023-06-11T02:54:50.929Z,12.91
2023-06-11T02:57:18.989Z,12.96
2023-06-11T02:59:46.981Z,13.02
2023-06-11T03:02:15.523Z,13.14
2023-06-11T03:04:44.388Z,13.23
2023-06-11T03:07:12.610Z,13.26
2023-06-11T03:09:40.723Z,13.25
2023-06-11T03:12:10.163Z,13.28
2023-06-11T03:14:39.389Z,13.30
2023-06-11T03:17:07.411Z,13.31
2023-06-11T03:19:35.493Z,13.31
2023-06-11T03:22:03.948Z,13.30
2023-06-11T03:24:31.980Z,13.33
2023-06-11T03:27:06.998Z,13.36
2023-06-11T03:29:35.345Z,13.39
2023-06-11T03:32:03.500Z,13.43
2023-06-11T03:34:32.170Z,13.47
2023-06-11T03:37:00.894Z,13.49
2023-06-11T03:39:29.088Z,13.54
2023-06-11T03:41:58.280Z,13.58
2023-06-11T03:44:27.315Z,13.61
2023-06-11T03:46:56.149Z,13.66
2023-06-11T03:49:24.380Z,13.75
2023-06-11T03:51:52.426Z,13.79
2023-06-11T03:54:20.459Z,13.84
2023-06-11T03:56:49.709Z,13.88
2023-06-11T03:59:17.823Z,13.90
2023-06-11T04:01:46.393Z,13.93
2023-06-11T04:04:14.747Z,13.96
2023-06-11T04:06:43.623Z,14.00
2023-06-11T04:09:12.292Z,14.04
2023-06-11T04:11:40.376Z,14.08
2023-06-11T04:14:08.341Z,14.16
2023-06-11T04:16:36.343Z,14.21
2023-06-11T04:19:04.709Z,14.28
2023-06-11T04:21:33.076Z,14.37
2023-06-11T04:24:01.294Z,14.46
2023-06-11T04:26:30.092Z,14.56
2023-06-11T04:28:58.922Z,14.65
2023-06-11T04:31:28.045Z,14.74
2023-06-11T04:33:57.901Z,14.83
2023-06-11T04:36:29.135Z,14.92
2023-06-11T04:38:57.675Z,15.02
2023-06-11T04:41:27.682Z,15.10
2023-06-11T04:43:56.642Z,15.24
2023-06-11T04:46:26.027Z,15.43
2023-06-11T04:48:58.350Z,15.63
2023-06-11T04:51:26.498Z,15.88
2023-06-11T04:53:55.627Z,15.92
2023-06-11T04:56:24.062Z,15.92
2023-06-11T04:58:52.196Z,15.95
2023-06-11T05:01:21.041Z,15.98
2023-06-11T05:03:49.824Z,16.01
2023-06-11T05:06:22.883Z,16.03
2023-06-11T05:08:53.364Z,16.07
2023-06-11T05:11:22.134Z,16.13
2023-06-11T05:13:50.546Z,16.22
2023-06-11T05:16:22.327Z,16.41
2023-06-11T05:18:51.402Z,16.58
2023-06-11T05:21:19.856Z,16.63
2023-06-11T05:23:49.962Z,16.69
2023-06-11T05:26:20.374Z,16.76
2023-06-11T05:28:49.712Z,16.85
2023-06-11T05:31:19.102Z,16.94
2023-06-11T05:33:50.043Z,17.05
2023-06-11T05:36:18.197Z,17.13
2023-06-11T05:38:47.650Z,17.21
2023-06-11T05:41:16.182Z,17.29
2023-06-11T05:43:44.248Z,17.35
2023-06-11T05:46:13.843Z,17.43
2023-06-11T05:48:46.775Z,17.53
2023-06-11T05:51:14.897Z,17.83
2023-06-11T05:53:42.937Z,18.21
2023-06-11T05:56:12.076Z,18.31
2023-06-11T05:58:40.391Z,18.35
2023-06-11T06:01:10.282Z,18.40
2023-06-11T06:03:39.724Z,18.42
2023-06-11T06:06:10.259Z,18.45
2023-06-11T06:08:38.749Z,18.51
2023-06-11T06:11:06.739Z,18.57
2023-06-11T06:13:35.235Z,18.64
2023-06-11T06:16:05.175Z,18.69
2023-06-11T06:18:34.511Z,18.77
2023-06-11T06:21:02.540Z,18.85
2023-06-11T06:23:30.585Z,18.96
2023-06-11T06:26:09.157Z,19.01
2023-06-11T06:28:37.613Z,19.01
2023-06-11T06:31:09.232Z,19.08
2023-06-11T06:33:39.199Z,19.16
2023-06-11T06:36:07.719Z,19.18
2023-06-11T06:38:37.562Z,19.19
2023-06-11T06:41:06.178Z,19.25
2023-06-11T06:43:35.039Z,19.31
2023-06-11T06:46:05.909Z,19.42
2023-06-11T06:48:34.451Z,19.50
2023-06-11T06:51:02.592Z,19.58
2023-06-11T06:53:30.912Z,19.44
2023-06-11T06:56:01.288Z,19.57
2023-06-11T06:58:29.678Z,19.63
2023-06-11T07:00:58.319Z,19.70
2023-06-11T07:03:26.450Z,19.76
2023-06-11T07:05:54.663Z,19.82
2023-06-11T07:08:22.589Z,19.83
2023-06-11T07:10:52.285Z,19.79
2023-06-11T07:13:26.454Z,19.81
2023-06-11T07:15:55.106Z,19.91
2023-06-11T07:18:23.829Z,20.01
2023-06-11T07:20:52.012Z,20.03
2023-06-11T07:23:22.616Z,19.88
2023-06-11T07:25:51.856Z,19.95
2023-06-11T07:28:21.136Z,20.07
2023-06-11T07:30:50.275Z,20.20
2023-06-11T07:33:18.673Z,20.42
2023-06-11T07:35:50.418Z,20.67
2023-06-11T07:38:19.072Z,21.01
2023-06-11T07:40:47.269Z,21.04
2023-06-11T07:43:15.276Z,21.27
2023-06-11T07:45:45.187Z,21.69
2023-06-11T07:48:14.467Z,21.61
2023-06-11T07:50:42.694Z,21.78
2023-06-11T07:53:14.257Z,21.77
2023-06-11T07:55:43.472Z,21.61
2023-06-11T07:58:11.698Z,21.73
2023-06-11T08:00:39.784Z,21.95
2023-06-11T08:03:07.862Z,21.86
2023-06-11T08:05:36.086Z,21.77
2023-06-11T08:08:04.392Z,21.37
2023-06-11T08:10:33.383Z,21.73
2023-06-11T08:13:01.368Z,21.87
2023-06-11T08:15:30.955Z,21.69
2023-06-11T08:17:58.990Z,21.87
2023-06-11T08:20:27.424Z,21.69
2023-06-11T08:22:55.595Z,22.14
2023-06-11T08:25:23.568Z,22.58
2023-06-11T08:27:52.451Z,22.89
2023-06-11T08:30:20.555Z,23.25
2023-06-11T08:32:48.798Z,23.64
2023-06-11T08:35:16.914Z,24.00
2023-06-11T08:37:46.270Z,24.31
2023-06-11T08:40:15.574Z,24.30
2023-06-11T08:42:43.563Z,24.37
2023-06-11T08:45:11.534Z,24.37
2023-06-11T08:47:42.281Z,24.51
2023-06-11T08:50:10.841Z,24.53
2023-06-11T08:52:40.920Z,24.49
2023-06-11T08:55:09.515Z,24.71
2023-06-11T08:57:37.529Z,24.79
2023-06-11T09:00:08.476Z,24.33
2023-06-11T09:02:37.111Z,24.44
2023-06-11T09:05:05.548Z,24.28
2023-06-11T09:07:37.200Z,24.66
2023-06-11T09:10:05.764Z,24.68
2023-06-11T09:12:34.083Z,24.79
2023-06-11T09:15:02.248Z,25.00
2023-06-11T09:17:37.066Z,24.71
2023-06-11T09:20:10.034Z,24.93
2023-06-11T09:22:39.500Z,25.02
2023-06-11T09:25:11.207Z,25.05
2023-06-11T09:27:40.625Z,24.91
2023-06-11T09:30:12.007Z,24.73
2023-06-11T09:32:41.601Z,24.52
2023-06-11T09:35:10.575Z,24.19
2023-06-11T09:37:46.270Z,24.12
2023-06-11T09:40:18.718Z,24.07
2023-06-11T09:42:47.816Z,24.02
2023-06-11T09:45:17.699Z,23.89
2023-06-11T09:47:47.454Z,23.65
2023-06-11T09:50:18.340Z,23.34
2023-06-11T09:52:46.934Z,22.99
2023-06-11T09:55:15.131Z,22.88
2023-06-11T09:57:43.943Z,22.82
2023-06-11T10:00:14.247Z,22.65
2023-06-11T10:02:43.640Z,22.38
2023-06-11T10:05:14.241Z,22.32
2023-06-11T10:07:48.453Z,22.20
2023-06-11T10:10:19.276Z,22.02
2023-06-11T10:12:54.669Z,21.94
2023-06-11T10:15:23.792Z,21.83
2023-06-11T10:17:53.043Z,21.73
2023-06-11T10:20:26.224Z,21.64
2023-06-11T10:23:07.966Z,21.56
2023-06-11T10:25:37.290Z,21.49
2023-06-11T10:28:05.823Z,21.40
2023-06-11T10:30:34.069Z,21.33
2023-06-11T10:33:02.564Z,21.25
2023-06-11T10:35:33.787Z,21.18
2023-06-11T10:38:05.313Z,21.17
2023-06-11T10:40:34.279Z,21.01
2023-06-11T10:43:05.809Z,20.81
2023-06-11T10:45:40.168Z,20.61
2023-06-11T10:48:08.634Z,20.41
2023-06-11T10:50:37.147Z,20.28
2023-06-11T10:53:14.633Z,20.21
2023-06-11T10:55:48.408Z,20.13
2023-06-11T10:58:27.487Z,19.97
2023-06-11T11:00:56.124Z,19.86
2023-06-11T11:03:25.433Z,19.70
2023-06-11T11:05:54.706Z,19.57
2023-06-11T11:08:25.682Z,19.51
2023-06-11T11:10:55.095Z,19.45
2023-06-11T11:13:23.706Z,19.38
2023-06-11T11:15:52.236Z,19.29
2023-06-11T11:18:20.346Z,19.21
2023-06-11T11:20:48.477Z,19.07
2023-06-11T11:23:16.540Z,18.93
2023-06-11T11:25:44.674Z,18.87
2023-06-11T11:28:13.601Z,18.86
2023-06-11T11:30:41.843Z,18.83
2023-06-11T11:33:12.085Z,18.81
2023-06-11T11:35:50.664Z,18.81
2023-06-11T11:38:18.724Z,18.73
2023-06-11T11:40:46.925Z,18.61
2023-06-11T11:43:14.952Z,18.46
2023-06-11T11:45:46.155Z,18.32
2023-06-11T11:48:16.822Z,18.22
2023-06-11T11:50:46.636Z,18.11
2023-06-11T11:53:16.571Z,17.96
2023-06-11T11:56:00.399Z,17.83
2023-06-11T11:58:28.985Z,17.71
2023-06-11T12:00:57.854Z,17.69
2023-06-11T12:03:28.294Z,17.70
2023-06-11T12:06:00.495Z,17.64
2023-06-11T12:08:30.042Z,17.61
2023-06-11T12:10:58.887Z,17.61
2023-06-11T12:13:27.135Z,17.64
2023-06-11T12:15:55.200Z,17.65
2023-06-11T12:18:23.380Z,17.65
2023-06-11T12:20:52.584Z,17.65
2023-06-11T12:23:20.652Z,17.65
2023-06-11T12:25:49.391Z,17.69
2023-06-11T12:28:18.717Z,17.73
2023-06-11T12:30:47.148Z,17.68
2023-06-11T12:33:17.217Z,17.64
2023-06-11T12:35:45.620Z,17.59
2023-06-11T12:38:15.854Z,17.56
2023-06-11T12:40:43.828Z,17.50
2023-06-11T12:43:11.824Z,17.51
2023-06-11T12:45:40.020Z,17.53
2023-06-11T12:48:08.288Z,17.57
2023-06-11T12:50:36.445Z,17.63
2023-06-11T12:53:05.766Z,17.67
2023-06-11T12:55:33.984Z,17.72
2023-06-11T12:58:02.087Z,17.77
2023-06-11T13:00:31.390Z,17.84
2023-06-11T13:03:00.016Z,17.89
2023-06-11T13:05:28.438Z,17.93
2023-06-11T13:07:56.689Z,17.98
2023-06-11T13:10:26.461Z,18.01
2023-06-11T13:12:56.424Z,17.99
2023-06-11T13:15:24.902Z,17.97
2023-06-11T13:17:53.044Z,17.93
2023-06-11T13:20:22.365Z,17.93
2023-06-11T13:22:51.354Z,17.94
2023-06-11T13:25:19.409Z,17.89
2023-06-11T13:27:47.510Z,17.85
2023-06-11T13:30:15.965Z,17.75
2023-06-11T13:32:44.972Z,17.65
2023-06-11T13:35:13.785Z,17.61
2023-06-11T13:37:42.032Z,17.59
2023-06-11T13:40:11.402Z,17.55
2023-06-11T13:42:39.886Z,17.55
2023-06-11T13:45:08.040Z,17.53
2023-06-11T13:47:36.184Z,17.51
2023-06-11T13:50:04.237Z,17.51
2023-06-11T13:52:32.428Z,17.51
2023-06-11T13:55:00.448Z,17.55
2023-06-11T13:57:29.391Z,17.60
2023-06-11T13:59:57.696Z,17.68
2023-06-11T14:02:26.644Z,17.76
2023-06-11T14:04:54.972Z,17.85
2023-06-11T14:07:23.125Z,17.97
2023-06-11T14:09:51.408Z,18.10
2023-06-11T14:12:19.410Z,18.21
2023-06-11T14:14:47.392Z,18.31
2023-06-11T14:17:15.483Z,18.41
2023-06-11T14:19:43.466Z,18.45
2023-06-11T14:22:11.860Z,18.50
2023-06-11T14:24:39.841Z,18.54
2023-06-11T14:27:08.081Z,18.58
2023-06-11T14:29:36.104Z,18.58
2023-06-11T14:32:04.588Z,18.56
2023-06-11T14:34:32.699Z,18.53
2023-06-11T14:37:01.151Z,18.48
2023-06-11T14:39:30.383Z,18.42
2023-06-11T14:41:58.594Z,18.40
2023-06-11T14:44:27.089Z,18.39
2023-06-11T14:46:55.185Z,18.37
2023-06-11T14:49:23.217Z,18.39
2023-06-11T14:51:51.434Z,18.39
2023-06-11T14:54:19.519Z,18.45
2023-06-11T14:56:47.531Z,18.57
2023-06-11T14:59:16.076Z,18.70
2023-06-11T15:01:44.172Z,18.77
2023-06-11T15:04:13.044Z,18.77
2023-06-11T15:06:44.586Z,18.79
2023-06-11T15:09:12.976Z,18.83
2023-06-11T15:11:41.105Z,18.91
2023-06-11T15:14:09.159Z,19.03
2023-06-11T15:16:38.370Z,19.09
2023-06-11T15:19:06.707Z,19.03
2023-06-11T15:21:34.680Z,19.03
2023-06-11T15:24:02.909Z,18.95
2023-06-11T15:26:30.898Z,19.01
2023-06-11T15:28:59.548Z,18.90
2023-06-11T15:31:27.622Z,18.91
2023-06-11T15:33:55.707Z,18.83
2023-06-11T15:36:23.625Z,18.80
2023-06-11T15:38:51.585Z,18.79
2023-06-11T15:41:19.580Z,18.76
2023-06-11T15:43:47.527Z,18.74
2023-06-11T15:46:15.717Z,18.68
2023-06-11T15:48:43.669Z,18.62
2023-06-11T15:51:11.797Z,18.54
2023-06-11T15:53:39.752Z,18.51
2023-06-11T15:56:07.804Z,18.49
2023-06-11T15:58:35.795Z,18.46
2023-06-11T16:01:03.877Z,18.42
2023-06-11T16:03:32.122Z,18.38
2023-06-11T16:06:00.439Z,18.37
2023-06-11T16:08:28.598Z,18.29
2023-06-11T16:10:56.642Z,18.28
2023-06-11T16:13:24.629Z,18.29
2023-06-11T16:15:52.779Z,18.27
2023-06-11T16:18:21.020Z,18.25
2023-06-11T16:20:49.213Z,18.25
2023-06-11T16:23:17.248Z,18.22
2023-06-11T16:25:47.240Z,18.16
2023-06-11T16:28:15.897Z,18.12
2023-06-11T16:30:43.917Z,18.06
2023-06-11T16:33:12.090Z,18.02
2023-06-11T16:35:40.188Z,17.98
2023-06-11T16:38:08.303Z,17.94
2023-06-11T16:40:36.376Z,17.89
2023-06-11T16:43:04.423Z,17.87
2023-06-11T16:45:32.504Z,17.88
2023-06-11T16:48:00.772Z,17.92
2023-06-11T16:50:29.155Z,17.94
2023-06-11T16:52:57.263Z,17.97
2023-06-11T16:55:25.337Z,17.99
2023-06-11T16:57:56.414Z,18.00
2023-06-11T17:00:26.105Z,18.00
2023-06-11T17:02:56.056Z,17.98
2023-06-11T17:05:24.636Z,17.96
2023-06-11T17:08:02.332Z,17.96
2023-06-11T17:10:31.231Z,17.98
2023-06-11T17:12:59.343Z,18.00
2023-06-11T17:15:27.843Z,17.99
2023-06-11T17:17:56.203Z,17.96
2023-06-11T17:20:24.260Z,17.95
2023-06-11T17:22:52.396Z,17.97
2023-06-11T17:25:22.242Z,17.97
2023-06-11T17:27:50.828Z,17.98
2023-06-11T17:30:19.136Z,17.99
2023-06-11T17:32:47.230Z,17.99
2023-06-11T17:35:15.579Z,18.00
2023-06-11T17:37:43.560Z,17.99
2023-06-11T17:40:15.478Z,17.98
2023-06-11T17:42:45.064Z,17.96
2023-06-11T17:45:13.735Z,17.89
2023-06-11T17:47:41.808Z,17.79
2023-06-11T17:50:11.816Z,17.73
2023-06-11T17:52:40.747Z,17.72
2023-06-11T17:55:14.418Z,17.70
2023-06-11T17:57:43.773Z,17.68
2023-06-11T18:00:13.195Z,17.65
2023-06-11T18:02:41.723Z,17.63
2023-06-11T18:05:10.837Z,17.61
2023-06-11T18:07:46.341Z,17.59
2023-06-11T18:10:15.643Z,17.60
2023-06-11T18:12:44.671Z,17.60
2023-06-11T18:17:44.848Z,17.66
2023-06-11T18:20:12.770Z,17.67
2023-06-11T18:22:40.801Z,17.66
2023-06-11T18:25:09.706Z,17.66
2023-06-11T18:27:38.628Z,17.63
2023-06-11T18:30:07.268Z,17.56
2023-06-11T18:32:37.699Z,17.54
2023-06-11T18:35:06.108Z,17.52
2023-06-11T18:37:34.075Z,17.44
2023-06-11T18:40:02.158Z,17.36
2023-06-11T18:42:30.338Z,17.33
2023-06-11T18:44:58.427Z,17.30
2023-06-11T18:47:26.615Z,17.30
2023-06-11T18:49:54.901Z,17.32
2023-06-11T18:52:25.990Z,17.31
2023-06-11T18:54:54.074Z,17.33
2023-06-11T18:57:26.441Z,17.36
2023-06-11T18:59:54.573Z,17.32
2023-06-11T19:02:22.685Z,17.27
2023-06-11T19:04:50.879Z,17.25
2023-06-11T19:07:19.022Z,17.25
2023-06-11T19:09:47.091Z,17.24
2023-06-11T19:12:15.156Z,17.16
2023-06-11T19:14:43.238Z,17.12
2023-06-11T19:17:11.833Z,17.09
2023-06-11T19:19:40.053Z,17.08
2023-06-11T19:22:08.362Z,17.07
2023-06-11T19:24:36.350Z,17.10
2023-06-11T19:27:04.590Z,17.11
2023-06-11T19:29:32.870Z,17.10
2023-06-11T19:32:01.201Z,17.09
2023-06-11T19:34:29.279Z,17.08
2023-06-11T19:36:57.353Z,17.08
2023-06-11T19:39:25.506Z,17.06
2023-06-11T19:41:53.538Z,17.06
2023-06-11T19:44:22.780Z,17.06
2023-06-11T19:46:51.017Z,17.06
2023-06-11T19:49:18.998Z,17.01
2023-06-11T19:51:46.893Z,17.02
2023-06-11T19:54:15.027Z,17.04
2023-06-11T19:56:46.006Z,17.05
2023-06-11T19:59:18.253Z,17.01
2023-06-11T20:01:46.419Z,16.95
2023-06-11T20:04:14.521Z,16.92
2023-06-11T20:06:42.496Z,16.88
2023-06-11T20:09:10.530Z,16.85
2023-06-11T20:11:38.598Z,16.80
2023-06-11T20:14:06.618Z,16.78
2023-06-11T20:16:34.801Z,16.75
2023-06-11T20:19:03.820Z,16.73
2023-06-11T20:21:32.038Z,16.73
2023-06-11T20:24:00.120Z,16.74
2023-06-11T20:26:28.565Z,16.75
2023-06-11T20:28:56.538Z,16.78
2023-06-11T20:31:24.573Z,16.80
2023-06-11T20:33:52.719Z,16.78
2023-06-11T20:36:20.781Z,16.74
2023-06-11T20:38:48.735Z,16.72
2023-06-11T20:41:16.642Z,16.70
2023-06-11T20:43:44.658Z,16.69
2023-06-11T20:46:27.913Z,16.68
2023-06-11T20:48:58.032Z,16.64
2023-06-11T20:51:26.394Z,16.57
2023-06-11T20:53:54.507Z,16.49
2023-06-11T20:56:23.099Z,16.44
2023-06-11T20:58:51.315Z,16.43
2023-06-11T21:01:19.385Z,16.41
2023-06-11T21:03:47.514Z,16.41
2023-06-11T21:06:15.750Z,16.38
2023-06-11T21:08:43.782Z,16.32
2023-06-11T21:11:11.966Z,16.29
2023-06-11T21:13:40.167Z,16.31
2023-06-11T21:16:08.228Z,16.33
2023-06-11T21:18:36.264Z,16.32
2023-06-11T21:21:04.250Z,16.32
2023-06-11T21:23:32.407Z,16.30
2023-06-11T21:26:00.370Z,16.21
2023-06-11T21:28:28.562Z,16.22
2023-06-11T21:30:56.586Z,16.20
2023-06-11T21:33:24.899Z,16.20
2023-06-11T21:35:52.877Z,16.21
2023-06-11T21:38:21.053Z,16.20
2023-06-11T21:40:49.058Z,16.22
2023-06-11T21:43:23.136Z,16.22
2023-06-11T21:45:51.102Z,16.20
2023-06-11T21:48:19.159Z,16.19
2023-06-11T21:50:47.345Z,16.18
2023-06-11T21:53:16.332Z,16.18
2023-06-11T21:55:45.142Z,16.18
2023-06-11T21:58:13.090Z,16.18
2023-06-11T22:00:41.302Z,16.20
2023-06-11T22:03:09.458Z,16.21
2023-06-11T22:05:37.424Z,16.18
2023-06-11T22:08:06.916Z,16.15
2023-06-11T22:10:35.078Z,16.08
2023-06-11T22:13:03.195Z,16.02
2023-06-11T22:15:31.181Z,16.00
2023-06-11T22:18:04.898Z,15.98
2023-06-11T22:20:36.697Z,16.01
2023-06-11T22:23:04.664Z,16.07
2023-06-11T22:25:32.712Z,16.13
2023-06-11T22:28:00.995Z,16.13
2023-06-11T22:30:29.012Z,16.16
2023-06-11T22:32:57.818Z,16.16
2023-06-11T22:35:26.021Z,16.12
2023-06-11T22:37:53.982Z,16.16
2023-06-11T22:40:22.116Z,16.19
2023-06-11T22:42:50.171Z,16.11
2023-06-11T22:45:18.201Z,16.01
2023-06-11T22:47:47.385Z,15.91
2023-06-11T22:50:15.949Z,15.88
2023-06-11T22:52:44.729Z,15.85
2023-06-11T22:55:12.793Z,15.83
2023-06-11T22:57:41.289Z,15.74
2023-06-11T23:00:11.423Z,15.70
2023-06-11T23:02:39.843Z,15.68
2023-06-11T23:05:08.966Z,15.64
2023-06-11T23:07:38.542Z,15.60
2023-06-11T23:10:07.158Z,15.56
2023-06-11T23:12:35.106Z,15.53
2023-06-11T23:15:03.461Z,15.53
2023-06-11T23:17:31.632Z,15.51
2023-06-11T23:20:02.641Z,15.49
2023-06-11T23:22:30.911Z,15.53
2023-06-11T23:25:01.345Z,15.53
2023-06-11T23:27:32.538Z,15.51
2023-06-11T23:30:02.261Z,15.48
2023-06-11T23:32:31.453Z,15.45
2023-06-11T23:35:01.580Z,15.43
2023-06-11T23:37:30.994Z,15.40
2023-06-11T23:39:59.078Z,15.47
2023-06-11T23:42:27.137Z,15.57
2023-06-11T23:44:55.019Z,15.61
2023-06-11T23:47:23.116Z,15.61
2023-06-11T23:49:51.064Z,15.56
2023-06-11T23:52:18.970Z,15.51
2023-06-11T23:54:46.980Z,15.43
2023-06-11T23:57:15.105Z,15.39
2023-06-11T23:59:43.144Z,15.37
